METAR Data
IDs: Format: Raw Decoded Include TAF

Data at: 1519 UTC 21 Sep 2018

KFLG 211457Z 00000KT 10SM CLR 13/06 A3035 RMK AO2 SLP198 T01330056 51014
KFLG 211357Z 00000KT 10SM CLR 06/03 A3034 RMK AO2 SLP199 T00610033
KFLG 211257Z AUTO 00000KT 10SM CLR 04/03 A3032 RMK AO2 SLP192 T00390028
KFLG 211157Z AUTO 00000KT 10SM CLR 05/02 A3030 RMK AO2 SLP180 T00500022 10083 20044 53008
KFLG 211057Z AUTO 00000KT 10SM CLR 05/02 A3029 RMK AO2 SLP173 T00500022
KFLG 210957Z AUTO 00000KT 10SM CLR 05/02 A3027 RMK AO2 SLP168 T00500022
KFLG 210857Z AUTO 00000KT 10SM CLR 06/02 A3027 RMK AO2 SLP164 T00610017 53003
KFLG 210757Z AUTO 00000KT 10SM CLR 06/02 A3027 RMK AO2 SLP165 T00610017
KFLG 210657Z AUTO 00000KT 10SM CLR 07/02 A3026 RMK AO2 SLP163 T00720017 402390067
KFLG 210557Z AUTO 02003KT 10SM CLR 08/03 A3026 RMK AO2 SLP162 T00830028 10222 20083 51010
KFLG 210457Z AUTO 00000KT 10SM CLR 09/03 A3025 RMK AO2 SLP160 T00940033
KFLG 210357Z AUTO 00000KT 10SM CLR 12/04 A3025 RMK AO2 SLP156 T01220039
KFLG 210257Z 35005KT 10SM CLR 14/04 A3022 RMK AO2 SLP150 T01440044 53018
KFLG 210157Z 24006KT 10SM CLR 19/00 A3019 RMK AO2 SLP141 T01890000
KFLG 210057Z 21008KT 10SM FEW090 21/03 A3017 RMK AO2 SLP130 T02110033
KFLG 202357Z 21008KT 10SM CLR 23/04 A3016 RMK AO2 SLP116 T02280039 10239 20206 53000
KFLG 202257Z 21009KT 10SM FEW090 23/04 A3015 RMK AO2 SLP117 T02330044
KFLG 202157Z 10SM BKN080 23/07 A3015 RMK AO2 SLP116 T02330067
KFLG 202057Z VRB06KT 10SM FEW080 23/05 A3016 RMK AO2 SLP118 T02330050 58008
KFLG 201957Z 36003KT 10SM CLR 23/04 A3017 RMK AO2 SLP123 T02280039
KFLG 201857Z 24005KT 10SM CLR 21/04 A3018 RMK AO2 SLP130 T02110039
KFLG 201757Z 00000KT 10SM CLR 21/05 A3019 RMK AO2 SLP134 T02060050 10211 20067 51003
KFLG 201657Z VRB04KT 10SM CLR 19/08 A3018 RMK AO2 SLP135 T01890078
KFLG 201557Z 00000KT 10SM CLR 17/08 A3018 RMK AO2 SLP135 T01720078
KFLG 201457Z 00000KT 10SM CLR 14/09 A3017 RMK AO2 SLP140 T01390094 53016
KFLG 201357Z 00000KT 10SM CLR 08/08 A3015 RMK AO2 SLP142 T00830078
KFLG 201257Z AUTO 00000KT 10SM CLR 09/08 A3013 RMK AO2 SLP132 T00890078
KFLG 201157Z AUTO VRB03KT 10SM CLR 11/09 A3012 RMK AO2 SLP122 70030 T01060094 10106 20078 52002
KFLG 201057Z AUTO 23005KT 10SM CLR 09/08 A3011 RMK AO2 SLP124 T00890078
KFLG 200957Z AUTO 23004KT 10SM CLR 08/08 A3011 RMK AO2 SLP128 T00830078
KFLG 200857Z AUTO 28003KT 10SM CLR 08/07 A3011 RMK AO2 SLP125 T00830072 56004
KFLG 200757Z AUTO 00000KT 10SM FEW019 09/08 A3012 RMK AO2 SLP124 T00890083
KFLG 200754Z AUTO 00000KT 10SM FEW019 09/08 A3012 RMK AO2
KFLG 200730Z AUTO 00000KT 10SM BKN020 09/09 A3012 RMK AO2 T00940089
KFLG 200711Z AUTO 00000KT 10SM SCT025 BKN033 10/09 A3012 RMK AO2 T01000089
KFLG 200657Z AUTO 00000KT 10SM BKN024 BKN034 10/09 A3012 RMK AO2 SLP127 T01000094 401720089
KFLG 200628Z AUTO 00000KT 10SM BKN026 09/09 A3012 RMK AO2 T00940089
KFLG 200557Z AUTO VRB03KT 10SM CLR 09/08 A3012 RMK AO2 SLP130 T00890083 10144 20089 50004
KFLG 200457Z AUTO 21003KT 10SM CLR 10/09 A3013 RMK AO2 SLP124 T01000094
KFLG 200357Z 00000KT 10SM CLR 11/11 A3012 RMK AO2 SLP116 T01110106